sensor_id;sensor_type;location;lat;lon;timestamp;P1;durP1;ratioP1;P2;durP2;ratioP2
67092;SDS011;54011;50.772;7.730;2023-02-23T00:01:47;23.40;;;11.43;;
67092;SDS011;54011;50.772;7.730;2023-02-23T00:04:13;24.38;;;12.27;;
67092;SDS011;54011;50.772;7.730;2023-02-23T00:06:39;21.10;;;12.90;;
67092;SDS011;54011;50.772;7.730;2023-02-23T00:09:05;23.25;;;13.43;;
67092;SDS011;54011;50.772;7.730;2023-02-23T00:11:38;22.30;;;12.98;;
67092;SDS011;54011;50.772;7.730;2023-02-23T00:14:04;25.05;;;14.88;;
67092;SDS011;54011;50.772;7.730;2023-02-23T00:16:37;26.02;;;14.85;;
67092;SDS011;54011;50.772;7.730;2023-02-23T00:19:03;29.75;;;17.38;;
67092;SDS011;54011;50.772;7.730;2023-02-23T00:21:32;35.45;;;19.70;;
67092;SDS011;54011;50.772;7.730;2023-02-23T00:24:01;32.83;;;17.13;;
67092;SDS011;54011;50.772;7.730;2023-02-23T00:26:32;24.63;;;15.18;;
67092;SDS011;54011;50.772;7.730;2023-02-23T00:29:03;33.80;;;16.77;;
67092;SDS011;54011;50.772;7.730;2023-02-23T00:31:36;29.40;;;16.75;;
67092;SDS011;54011;50.772;7.730;2023-02-23T00:34:03;29.83;;;16.92;;
67092;SDS011;54011;50.772;7.730;2023-02-23T00:36:31;32.40;;;18.38;;
67092;SDS011;54011;50.772;7.730;2023-02-23T00:38:58;32.53;;;19.50;;
67092;SDS011;54011;50.772;7.730;2023-02-23T00:41:27;40.67;;;22.48;;
67092;SDS011;54011;50.772;7.730;2023-02-23T00:43:54;36.85;;;20.52;;
67092;SDS011;54011;50.772;7.730;2023-02-23T00:46:22;43.17;;;23.80;;
67092;SDS011;54011;50.772;7.730;2023-02-23T00:49:00;47.50;;;26.10;;
67092;SDS011;54011;50.772;7.730;2023-02-23T00:51:26;48.55;;;25.95;;
67092;SDS011;54011;50.772;7.730;2023-02-23T00:53:55;53.70;;;28.38;;
67092;SDS011;54011;50.772;7.730;2023-02-23T00:56:25;52.75;;;27.98;;
67092;SDS011;54011;50.772;7.730;2023-02-23T00:58:51;48.15;;;28.05;;
67092;SDS011;54011;50.772;7.730;2023-02-23T01:01:17;53.47;;;27.63;;
67092;SDS011;54011;50.772;7.730;2023-02-23T01:03:43;53.63;;;26.67;;
67092;SDS011;54011;50.772;7.730;2023-02-23T01:06:11;51.90;;;27.15;;
67092;SDS011;54011;50.772;7.730;2023-02-23T01:08:41;50.08;;;27.63;;
67092;SDS011;54011;50.772;7.730;2023-02-23T01:11:10;49.85;;;27.15;;
67092;SDS011;54011;50.772;7.730;2023-02-23T01:13:39;47.42;;;26.67;;
67092;SDS011;54011;50.772;7.730;2023-02-23T01:16:07;45.55;;;26.05;;
67092;SDS011;54011;50.772;7.730;2023-02-23T01:18:34;48.03;;;26.95;;
67092;SDS011;54011;50.772;7.730;2023-02-23T01:21:01;28.13;;;15.63;;
67092;SDS011;54011;50.772;7.730;2023-02-23T01:23:27;22.13;;;12.13;;
67092;SDS011;54011;50.772;7.730;2023-02-23T01:25:54;23.13;;;13.05;;
67092;SDS011;54011;50.772;7.730;2023-02-23T01:28:19;20.40;;;11.77;;
67092;SDS011;54011;50.772;7.730;2023-02-23T01:30:44;19.90;;;12.20;;
67092;SDS011;54011;50.772;7.730;2023-02-23T01:33:10;18.88;;;12.00;;
67092;SDS011;54011;50.772;7.730;2023-02-23T01:35:38;19.38;;;12.55;;
67092;SDS011;54011;50.772;7.730;2023-02-23T01:38:03;22.75;;;13.60;;
67092;SDS011;54011;50.772;7.730;2023-02-23T01:40:29;24.95;;;14.40;;
67092;SDS011;54011;50.772;7.730;2023-02-23T01:42:59;22.05;;;13.88;;
67092;SDS011;54011;50.772;7.730;2023-02-23T01:45:36;29.38;;;14.60;;
67092;SDS011;54011;50.772;7.730;2023-02-23T01:53:19;24.08;;;12.32;;
67092;SDS011;54011;50.772;7.730;2023-02-23T01:55:48;31.27;;;14.50;;
67092;SDS011;54011;50.772;7.730;2023-02-23T01:58:20;25.88;;;13.82;;
67092;SDS011;54011;50.772;7.730;2023-02-23T02:00:57;25.23;;;14.35;;
67092;SDS011;54011;50.772;7.730;2023-02-23T02:03:34;30.35;;;17.77;;
67092;SDS011;54011;50.772;7.730;2023-02-23T02:06:03;25.63;;;14.70;;
67092;SDS011;54011;50.772;7.730;2023-02-23T02:08:34;37.13;;;20.38;;
67092;SDS011;54011;50.772;7.730;2023-02-23T02:11:12;42.75;;;21.85;;
67092;SDS011;54011;50.772;7.730;2023-02-23T02:17:10;45.58;;;22.88;;
67092;SDS011;54011;50.772;7.730;2023-02-23T02:22:28;33.13;;;18.95;;
67092;SDS011;54011;50.772;7.730;2023-02-23T02:36:38;38.13;;;20.20;;
67092;SDS011;54011;50.772;7.730;2023-02-23T02:42:43;31.73;;;17.25;;
67092;SDS011;54011;50.772;7.730;2023-02-23T02:45:27;36.72;;;19.70;;
67092;SDS011;54011;50.772;7.730;2023-02-23T02:56:10;27.25;;;16.17;;
67092;SDS011;54011;50.772;7.730;2023-02-23T02:58:38;31.25;;;15.98;;
67092;SDS011;54011;50.772;7.730;2023-02-23T03:01:16;27.75;;;15.90;;
67092;SDS011;54011;50.772;7.730;2023-02-23T03:04:03;28.30;;;15.55;;
67092;SDS011;54011;50.772;7.730;2023-02-23T03:07:15;27.50;;;15.73;;
67092;SDS011;54011;50.772;7.730;2023-02-23T03:10:08;34.42;;;17.98;;
67092;SDS011;54011;50.772;7.730;2023-02-23T03:13:12;43.80;;;21.15;;
67092;SDS011;54011;50.772;7.730;2023-02-23T03:16:11;37.67;;;21.25;;
67092;SDS011;54011;50.772;7.730;2023-02-23T03:19:30;40.53;;;22.80;;
67092;SDS011;54011;50.772;7.730;2023-02-23T03:22:25;43.10;;;22.08;;
67092;SDS011;54011;50.772;7.730;2023-02-23T03:25:25;40.17;;;21.88;;
67092;SDS011;54011;50.772;7.730;2023-02-23T03:28:17;41.20;;;21.65;;
67092;SDS011;54011;50.772;7.730;2023-02-23T03:31:08;37.80;;;22.23;;
67092;SDS011;54011;50.772;7.730;2023-02-23T03:34:17;38.30;;;21.95;;
67092;SDS011;54011;50.772;7.730;2023-02-23T03:37:10;38.15;;;21.38;;
67092;SDS011;54011;50.772;7.730;2023-02-23T03:40:05;34.30;;;20.98;;
67092;SDS011;54011;50.772;7.730;2023-02-23T03:42:55;31.50;;;19.67;;
67092;SDS011;54011;50.772;7.730;2023-02-23T03:45:43;37.78;;;19.83;;
67092;SDS011;54011;50.772;7.730;2023-02-23T03:48:30;31.73;;;18.75;;
67092;SDS011;54011;50.772;7.730;2023-02-23T03:51:18;39.03;;;20.30;;
67092;SDS011;54011;50.772;7.730;2023-02-23T03:54:09;37.80;;;19.90;;
67092;SDS011;54011;50.772;7.730;2023-02-23T03:56:58;41.55;;;20.50;;
67092;SDS011;54011;50.772;7.730;2023-02-23T03:59:49;32.95;;;18.17;;
67092;SDS011;54011;50.772;7.730;2023-02-23T04:02:41;35.53;;;18.77;;
67092;SDS011;54011;50.772;7.730;2023-02-23T04:05:28;30.52;;;17.60;;
67092;SDS011;54011;50.772;7.730;2023-02-23T04:08:15;34.20;;;19.52;;
67092;SDS011;54011;50.772;7.730;2023-02-23T04:11:26;42.40;;;18.35;;
67092;SDS011;54011;50.772;7.730;2023-02-23T04:14:24;31.80;;;15.13;;
67092;SDS011;54011;50.772;7.730;2023-02-23T04:16:55;50.13;;;14.55;;
67092;SDS011;54011;50.772;7.730;2023-02-23T04:19:24;27.13;;;16.10;;
67092;SDS011;54011;50.772;7.730;2023-02-23T04:21:52;39.08;;;17.65;;
67092;SDS011;54011;50.772;7.730;2023-02-23T04:24:17;29.23;;;16.40;;
67092;SDS011;54011;50.772;7.730;2023-02-23T04:26:42;34.10;;;17.45;;
67092;SDS011;54011;50.772;7.730;2023-02-23T04:29:10;33.42;;;17.10;;
67092;SDS011;54011;50.772;7.730;2023-02-23T04:31:36;28.55;;;16.38;;
67092;SDS011;54011;50.772;7.730;2023-02-23T04:34:02;33.65;;;17.40;;
67092;SDS011;54011;50.772;7.730;2023-02-23T04:36:28;34.20;;;18.52;;
67092;SDS011;54011;50.772;7.730;2023-02-23T04:38:55;36.47;;;20.42;;
67092;SDS011;54011;50.772;7.730;2023-02-23T04:41:21;36.30;;;20.55;;
67092;SDS011;54011;50.772;7.730;2023-02-23T04:43:47;36.03;;;21.92;;
67092;SDS011;54011;50.772;7.730;2023-02-23T04:46:14;41.72;;;22.67;;
67092;SDS011;54011;50.772;7.730;2023-02-23T04:48:39;46.92;;;23.58;;
67092;SDS011;54011;50.772;7.730;2023-02-23T04:51:05;39.05;;;22.67;;
67092;SDS011;54011;50.772;7.730;2023-02-23T04:53:30;38.25;;;22.30;;
67092;SDS011;54011;50.772;7.730;2023-02-23T04:55:56;32.90;;;20.38;;
67092;SDS011;54011;50.772;7.730;2023-02-23T04:58:21;28.25;;;13.77;;
67092;SDS011;54011;50.772;7.730;2023-02-23T05:00:47;25.05;;;14.50;;
67092;SDS011;54011;50.772;7.730;2023-02-23T05:03:12;33.97;;;16.35;;
67092;SDS011;54011;50.772;7.730;2023-02-23T05:05:40;34.90;;;19.48;;
67092;SDS011;54011;50.772;7.730;2023-02-23T05:08:05;32.20;;;17.55;;
67092;SDS011;54011;50.772;7.730;2023-02-23T05:10:32;30.40;;;17.65;;
67092;SDS011;54011;50.772;7.730;2023-02-23T05:12:58;35.60;;;19.42;;
67092;SDS011;54011;50.772;7.730;2023-02-23T05:15:25;33.88;;;18.45;;
67092;SDS011;54011;50.772;7.730;2023-02-23T05:17:50;36.15;;;19.92;;
67092;SDS011;54011;50.772;7.730;2023-02-23T05:20:16;34.67;;;19.40;;
67092;SDS011;54011;50.772;7.730;2023-02-23T05:22:42;38.28;;;20.15;;
67092;SDS011;54011;50.772;7.730;2023-02-23T05:25:07;39.03;;;20.33;;
67092;SDS011;54011;50.772;7.730;2023-02-23T05:27:34;39.60;;;20.38;;
67092;SDS011;54011;50.772;7.730;2023-02-23T05:30:01;35.83;;;19.48;;
67092;SDS011;54011;50.772;7.730;2023-02-23T05:32:28;33.90;;;18.95;;
67092;SDS011;54011;50.772;7.730;2023-02-23T05:34:53;39.25;;;18.98;;
67092;SDS011;54011;50.772;7.730;2023-02-23T05:37:19;36.35;;;19.58;;
67092;SDS011;54011;50.772;7.730;2023-02-23T05:39:46;32.45;;;16.88;;
67092;SDS011;54011;50.772;7.730;2023-02-23T05:42:12;27.40;;;15.80;;
67092;SDS011;54011;50.772;7.730;2023-02-23T05:44:39;33.30;;;17.67;;
67092;SDS011;54011;50.772;7.730;2023-02-23T05:47:05;28.38;;;14.63;;
67092;SDS011;54011;50.772;7.730;2023-02-23T05:49:30;31.85;;;16.58;;
67092;SDS011;54011;50.772;7.730;2023-02-23T05:51:56;36.47;;;19.67;;
67092;SDS011;54011;50.772;7.730;2023-02-23T05:54:21;32.90;;;19.10;;
67092;SDS011;54011;50.772;7.730;2023-02-23T05:56:46;34.67;;;19.17;;
67092;SDS011;54011;50.772;7.730;2023-02-23T05:59:12;30.90;;;17.95;;
67092;SDS011;54011;50.772;7.730;2023-02-23T06:01:38;32.08;;;19.00;;
67092;SDS011;54011;50.772;7.730;2023-02-23T06:04:03;28.90;;;16.40;;
67092;SDS011;54011;50.772;7.730;2023-02-23T06:06:29;28.83;;;15.55;;
67092;SDS011;54011;50.772;7.730;2023-02-23T06:08:54;28.67;;;15.65;;
67092;SDS011;54011;50.772;7.730;2023-02-23T06:11:20;33.60;;;17.45;;
67092;SDS011;54011;50.772;7.730;2023-02-23T06:13:47;34.75;;;18.73;;
67092;SDS011;54011;50.772;7.730;2023-02-23T06:16:13;29.48;;;16.67;;
67092;SDS011;54011;50.772;7.730;2023-02-23T06:18:40;34.38;;;17.52;;
67092;SDS011;54011;50.772;7.730;2023-02-23T06:21:07;35.53;;;18.92;;
67092;SDS011;54011;50.772;7.730;2023-02-23T06:23:33;28.42;;;15.55;;
67092;SDS011;54011;50.772;7.730;2023-02-23T06:25:59;30.55;;;16.60;;
67092;SDS011;54011;50.772;7.730;2023-02-23T06:28:28;31.55;;;16.60;;
67092;SDS011;54011;50.772;7.730;2023-02-23T06:30:54;33.97;;;18.05;;
67092;SDS011;54011;50.772;7.730;2023-02-23T06:33:20;34.40;;;18.92;;
67092;SDS011;54011;50.772;7.730;2023-02-23T06:35:46;37.30;;;14.27;;
67092;SDS011;54011;50.772;7.730;2023-02-23T06:38:11;73.55;;;14.23;;
67092;SDS011;54011;50.772;7.730;2023-02-23T06:40:38;30.40;;;17.60;;
67092;SDS011;54011;50.772;7.730;2023-02-23T06:43:04;35.38;;;21.30;;
67092;SDS011;54011;50.772;7.730;2023-02-23T06:45:30;29.83;;;16.60;;
67092;SDS011;54011;50.772;7.730;2023-02-23T06:47:57;103.80;;;15.70;;
67092;SDS011;54011;50.772;7.730;2023-02-23T06:50:26;29.08;;;15.68;;
67092;SDS011;54011;50.772;7.730;2023-02-23T06:52:53;28.35;;;16.67;;
67092;SDS011;54011;50.772;7.730;2023-02-23T06:55:18;38.63;;;20.10;;
67092;SDS011;54011;50.772;7.730;2023-02-23T06:57:47;42.03;;;21.55;;
67092;SDS011;54011;50.772;7.730;2023-02-23T07:00:13;45.08;;;22.02;;
67092;SDS011;54011;50.772;7.730;2023-02-23T07:02:40;41.30;;;21.17;;
67092;SDS011;54011;50.772;7.730;2023-02-23T07:05:06;44.78;;;21.38;;
67092;SDS011;54011;50.772;7.730;2023-02-23T07:07:33;49.42;;;22.75;;
67092;SDS011;54011;50.772;7.730;2023-02-23T07:09:58;42.40;;;21.30;;
67092;SDS011;54011;50.772;7.730;2023-02-23T07:12:25;44.35;;;21.70;;
67092;SDS011;54011;50.772;7.730;2023-02-23T07:14:51;39.30;;;20.80;;
67092;SDS011;54011;50.772;7.730;2023-02-23T07:17:16;131.23;;;20.55;;
67092;SDS011;54011;50.772;7.730;2023-02-23T07:19:42;49.13;;;24.42;;
67092;SDS011;54011;50.772;7.730;2023-02-23T07:22:08;75.50;;;21.45;;
67092;SDS011;54011;50.772;7.730;2023-02-23T07:24:33;51.38;;;21.10;;
67092;SDS011;54011;50.772;7.730;2023-02-23T07:26:59;34.58;;;19.10;;
67092;SDS011;54011;50.772;7.730;2023-02-23T07:29:24;38.72;;;19.60;;
67092;SDS011;54011;50.772;7.730;2023-02-23T07:31:53;36.38;;;18.42;;
67092;SDS011;54011;50.772;7.730;2023-02-23T07:34:18;44.78;;;21.38;;
67092;SDS011;54011;50.772;7.730;2023-02-23T07:36:45;38.20;;;21.45;;
67092;SDS011;54011;50.772;7.730;2023-02-23T07:39:11;45.70;;;24.45;;
67092;SDS011;54011;50.772;7.730;2023-02-23T07:41:37;43.60;;;24.45;;
67092;SDS011;54011;50.772;7.730;2023-02-23T07:44:05;46.45;;;24.73;;
67092;SDS011;54011;50.772;7.730;2023-02-23T07:46:32;49.58;;;25.63;;
67092;SDS011;54011;50.772;7.730;2023-02-23T07:48:58;48.75;;;26.73;;
67092;SDS011;54011;50.772;7.730;2023-02-23T07:51:23;48.20;;;25.85;;
67092;SDS011;54011;50.772;7.730;2023-02-23T07:53:50;50.88;;;28.45;;
67092;SDS011;54011;50.772;7.730;2023-02-23T07:56:16;49.22;;;26.98;;
67092;SDS011;54011;50.772;7.730;2023-02-23T07:58:42;56.33;;;30.60;;
67092;SDS011;54011;50.772;7.730;2023-02-23T08:01:08;53.53;;;29.23;;
67092;SDS011;54011;50.772;7.730;2023-02-23T08:03:35;52.95;;;29.83;;
67092;SDS011;54011;50.772;7.730;2023-02-23T08:06:00;52.28;;;28.63;;
67092;SDS011;54011;50.772;7.730;2023-02-23T08:08:26;52.53;;;28.92;;
67092;SDS011;54011;50.772;7.730;2023-02-23T08:10:58;55.53;;;30.88;;
67092;SDS011;54011;50.772;7.730;2023-02-23T08:13:27;49.15;;;27.63;;
67092;SDS011;54011;50.772;7.730;2023-02-23T08:15:53;54.42;;;31.58;;
67092;SDS011;54011;50.772;7.730;2023-02-23T08:18:19;57.92;;;31.17;;
67092;SDS011;54011;50.772;7.730;2023-02-23T08:20:45;59.85;;;32.83;;
67092;SDS011;54011;50.772;7.730;2023-02-23T08:23:11;60.25;;;32.72;;
67092;SDS011;54011;50.772;7.730;2023-02-23T08:25:36;63.03;;;32.75;;
67092;SDS011;54011;50.772;7.730;2023-02-23T08:28:02;61.63;;;33.78;;
67092;SDS011;54011;50.772;7.730;2023-02-23T08:30:31;60.78;;;33.13;;
67092;SDS011;54011;50.772;7.730;2023-02-23T08:32:57;59.88;;;32.10;;
67092;SDS011;54011;50.772;7.730;2023-02-23T08:35:22;59.88;;;34.70;;
67092;SDS011;54011;50.772;7.730;2023-02-23T08:37:49;51.67;;;28.17;;
67092;SDS011;54011;50.772;7.730;2023-02-23T08:40:14;61.95;;;33.45;;
67092;SDS011;54011;50.772;7.730;2023-02-23T08:42:42;50.60;;;27.05;;
67092;SDS011;54011;50.772;7.730;2023-02-23T08:45:08;58.65;;;33.05;;
67092;SDS011;54011;50.772;7.730;2023-02-23T08:47:34;57.10;;;32.45;;
67092;SDS011;54011;50.772;7.730;2023-02-23T08:50:01;59.65;;;33.05;;
67092;SDS011;54011;50.772;7.730;2023-02-23T08:52:29;60.50;;;33.28;;
67092;SDS011;54011;50.772;7.730;2023-02-23T08:54:54;58.75;;;33.17;;
67092;SDS011;54011;50.772;7.730;2023-02-23T08:57:20;55.50;;;33.08;;
67092;SDS011;54011;50.772;7.730;2023-02-23T08:59:47;58.53;;;33.22;;
67092;SDS011;54011;50.772;7.730;2023-02-23T09:02:13;59.72;;;33.45;;
67092;SDS011;54011;50.772;7.730;2023-02-23T09:04:41;57.30;;;31.83;;
67092;SDS011;54011;50.772;7.730;2023-02-23T09:07:07;49.08;;;29.83;;
67092;SDS011;54011;50.772;7.730;2023-02-23T09:09:34;56.00;;;32.40;;
67092;SDS011;54011;50.772;7.730;2023-02-23T09:12:00;56.60;;;32.72;;
67092;SDS011;54011;50.772;7.730;2023-02-23T09:14:26;55.83;;;32.10;;
67092;SDS011;54011;50.772;7.730;2023-02-23T09:16:52;57.35;;;32.88;;
67092;SDS011;54011;50.772;7.730;2023-02-23T09:19:17;48.05;;;25.00;;
67092;SDS011;54011;50.772;7.730;2023-02-23T09:21:44;57.38;;;33.63;;
67092;SDS011;54011;50.772;7.730;2023-02-23T09:24:09;55.55;;;33.13;;
67092;SDS011;54011;50.772;7.730;2023-02-23T09:26:35;56.80;;;33.08;;
67092;SDS011;54011;50.772;7.730;2023-02-23T09:29:04;51.13;;;31.58;;
67092;SDS011;54011;50.772;7.730;2023-02-23T09:31:32;52.38;;;30.63;;
67092;SDS011;54011;50.772;7.730;2023-02-23T09:33:58;51.05;;;30.42;;
67092;SDS011;54011;50.772;7.730;2023-02-23T09:36:27;53.75;;;30.80;;
67092;SDS011;54011;50.772;7.730;2023-02-23T09:38:54;47.05;;;28.60;;
67092;SDS011;54011;50.772;7.730;2023-02-23T09:49:22;48.25;;;26.85;;
67092;SDS011;54011;50.772;7.730;2023-02-23T09:51:53;43.83;;;25.95;;
67092;SDS011;54011;50.772;7.730;2023-02-23T09:54:23;51.70;;;30.27;;
67092;SDS011;54011;50.772;7.730;2023-02-23T09:59:22;54.10;;;25.48;;
67092;SDS011;54011;50.772;7.730;2023-02-23T10:02:02;30.08;;;15.95;;
67092;SDS011;54011;50.772;7.730;2023-02-23T10:04:42;50.58;;;27.60;;
67092;SDS011;54011;50.772;7.730;2023-02-23T10:07:19;60.95;;;30.33;;
67092;SDS011;54011;50.772;7.730;2023-02-23T10:15:15;63.55;;;30.90;;
67092;SDS011;54011;50.772;7.730;2023-02-23T10:23:32;63.33;;;27.23;;
67092;SDS011;54011;50.772;7.730;2023-02-23T10:26:02;51.35;;;23.17;;
67092;SDS011;54011;50.772;7.730;2023-02-23T10:28:35;59.10;;;30.00;;
67092;SDS011;54011;50.772;7.730;2023-02-23T10:31:02;65.35;;;32.60;;
67092;SDS011;54011;50.772;7.730;2023-02-23T10:33:41;70.25;;;31.38;;
67092;SDS011;54011;50.772;7.730;2023-02-23T10:36:16;61.75;;;29.70;;
67092;SDS011;54011;50.772;7.730;2023-02-23T10:38:44;47.28;;;22.17;;
67092;SDS011;54011;50.772;7.730;2023-02-23T10:41:10;61.83;;;31.88;;
67092;SDS011;54011;50.772;7.730;2023-02-23T10:43:36;56.00;;;29.63;;
67092;SDS011;54011;50.772;7.730;2023-02-23T10:46:03;43.45;;;21.23;;
67092;SDS011;54011;50.772;7.730;2023-02-23T10:48:33;56.88;;;29.35;;
67092;SDS011;54011;50.772;7.730;2023-02-23T10:51:04;57.63;;;30.38;;
67092;SDS011;54011;50.772;7.730;2023-02-23T10:53:37;58.78;;;28.42;;
67092;SDS011;54011;50.772;7.730;2023-02-23T10:56:08;54.45;;;28.58;;
67092;SDS011;54011;50.772;7.730;2023-02-23T11:01:49;53.60;;;28.20;;
67092;SDS011;54011;50.772;7.730;2023-02-23T11:04:18;49.42;;;25.75;;
67092;SDS011;54011;50.772;7.730;2023-02-23T11:06:44;60.88;;;30.25;;
67092;SDS011;54011;50.772;7.730;2023-02-23T11:11:58;55.33;;;26.88;;
67092;SDS011;54011;50.772;7.730;2023-02-23T11:14:27;57.47;;;27.60;;
67092;SDS011;54011;50.772;7.730;2023-02-23T11:16:57;69.93;;;31.65;;
67092;SDS011;54011;50.772;7.730;2023-02-23T11:19:34;69.78;;;32.08;;
67092;SDS011;54011;50.772;7.730;2023-02-23T11:22:02;61.88;;;29.27;;
67092;SDS011;54011;50.772;7.730;2023-02-23T11:24:37;64.53;;;29.95;;
67092;SDS011;54011;50.772;7.730;2023-02-23T11:27:09;64.13;;;31.88;;
67092;SDS011;54011;50.772;7.730;2023-02-23T11:29:45;64.68;;;30.60;;
67092;SDS011;54011;50.772;7.730;2023-02-23T11:32:16;59.72;;;30.70;;
67092;SDS011;54011;50.772;7.730;2023-02-23T11:34:45;55.33;;;24.83;;
67092;SDS011;54011;50.772;7.730;2023-02-23T11:42:19;47.83;;;24.15;;
67092;SDS011;54011;50.772;7.730;2023-02-23T11:44:51;52.92;;;26.52;;
67092;SDS011;54011;50.772;7.730;2023-02-23T11:47:26;56.38;;;27.85;;
67092;SDS011;54011;50.772;7.730;2023-02-23T11:49:52;40.42;;;17.60;;
67092;SDS011;54011;50.772;7.730;2023-02-23T11:52:19;42.97;;;21.27;;
67092;SDS011;54011;50.772;7.730;2023-02-23T11:55:05;60.10;;;28.15;;
67092;SDS011;54011;50.772;7.730;2023-02-23T11:57:36;55.55;;;24.77;;
67092;SDS011;54011;50.772;7.730;2023-02-23T12:00:19;62.90;;;29.33;;
67092;SDS011;54011;50.772;7.730;2023-02-23T12:02:53;59.75;;;28.88;;
67092;SDS011;54011;50.772;7.730;2023-02-23T12:05:31;67.63;;;30.55;;
67092;SDS011;54011;50.772;7.730;2023-02-23T12:16:18;59.33;;;29.27;;
67092;SDS011;54011;50.772;7.730;2023-02-23T12:18:51;59.35;;;28.88;;
67092;SDS011;54011;50.772;7.730;2023-02-23T12:21:29;59.08;;;30.13;;
67092;SDS011;54011;50.772;7.730;2023-02-23T12:24:11;55.53;;;26.15;;
67092;SDS011;54011;50.772;7.730;2023-02-23T12:26:53;41.55;;;21.55;;
67092;SDS011;54011;50.772;7.730;2023-02-23T12:32:05;47.97;;;22.63;;
67092;SDS011;54011;50.772;7.730;2023-02-23T12:34:57;54.60;;;26.60;;
67092;SDS011;54011;50.772;7.730;2023-02-23T12:37:31;52.90;;;25.30;;
67092;SDS011;54011;50.772;7.730;2023-02-23T12:40:05;55.50;;;25.35;;
67092;SDS011;54011;50.772;7.730;2023-02-23T12:42:38;54.33;;;24.50;;
67092;SDS011;54011;50.772;7.730;2023-02-23T12:50:50;61.05;;;25.95;;
67092;SDS011;54011;50.772;7.730;2023-02-23T12:53:20;55.55;;;26.10;;
67092;SDS011;54011;50.772;7.730;2023-02-23T12:56:00;47.30;;;21.83;;
67092;SDS011;54011;50.772;7.730;2023-02-23T13:09:54;33.65;;;16.08;;
67092;SDS011;54011;50.772;7.730;2023-02-23T13:12:39;36.33;;;15.57;;
67092;SDS011;54011;50.772;7.730;2023-02-23T13:18:49;35.85;;;17.95;;
67092;SDS011;54011;50.772;7.730;2023-02-23T13:21:12;37.60;;;18.60;;
67092;SDS011;54011;50.772;7.730;2023-02-23T13:23:50;35.97;;;13.85;;
67092;SDS011;54011;50.772;7.730;2023-02-23T13:32:00;38.33;;;18.77;;
67092;SDS011;54011;50.772;7.730;2023-02-23T13:34:33;41.80;;;20.23;;
67092;SDS011;54011;50.772;7.730;2023-02-23T13:37:06;38.05;;;19.33;;
67092;SDS011;54011;50.772;7.730;2023-02-23T13:42:21;37.55;;;18.58;;
67092;SDS011;54011;50.772;7.730;2023-02-23T13:47:55;36.97;;;18.33;;
67092;SDS011;54011;50.772;7.730;2023-02-23T13:50:50;39.35;;;19.55;;
67092;SDS011;54011;50.772;7.730;2023-02-23T13:53:32;39.63;;;18.88;;
67092;SDS011;54011;50.772;7.730;2023-02-23T13:56:08;36.92;;;16.48;;
67092;SDS011;54011;50.772;7.730;2023-02-23T13:58:47;36.95;;;18.48;;
67092;SDS011;54011;50.772;7.730;2023-02-23T14:01:31;42.10;;;20.23;;
67092;SDS011;54011;50.772;7.730;2023-02-23T14:04:06;38.92;;;20.25;;
67092;SDS011;54011;50.772;7.730;2023-02-23T14:06:39;39.85;;;19.65;;
67092;SDS011;54011;50.772;7.730;2023-02-23T14:09:22;41.05;;;19.83;;
67092;SDS011;54011;50.772;7.730;2023-02-23T14:11:55;45.63;;;21.73;;
67092;SDS011;54011;50.772;7.730;2023-02-23T14:19:37;43.72;;;20.00;;
67092;SDS011;54011;50.772;7.730;2023-02-23T14:22:11;41.60;;;21.75;;
67092;SDS011;54011;50.772;7.730;2023-02-23T14:24:42;43.33;;;21.35;;
67092;SDS011;54011;50.772;7.730;2023-02-23T14:27:21;41.95;;;21.13;;
67092;SDS011;54011;50.772;7.730;2023-02-23T14:32:40;41.55;;;21.30;;
67092;SDS011;54011;50.772;7.730;2023-02-23T14:35:56;44.67;;;22.42;;
67092;SDS011;54011;50.772;7.730;2023-02-23T14:38:00;46.63;;;21.13;;
67092;SDS011;54011;50.772;7.730;2023-02-23T14:40:33;44.30;;;20.83;;
67092;SDS011;54011;50.772;7.730;2023-02-23T14:43:18;33.85;;;16.30;;
67092;SDS011;54011;50.772;7.730;2023-02-23T14:45:55;44.40;;;21.30;;
67092;SDS011;54011;50.772;7.730;2023-02-23T14:48:20;32.20;;;15.13;;
67092;SDS011;54011;50.772;7.730;2023-02-23T14:50:47;47.15;;;23.05;;
67092;SDS011;54011;50.772;7.730;2023-02-23T14:53:16;34.35;;;17.08;;
67092;SDS011;54011;50.772;7.730;2023-02-23T14:55:44;48.05;;;22.38;;
67092;SDS011;54011;50.772;7.730;2023-02-23T15:00:53;50.65;;;23.30;;
67092;SDS011;54011;50.772;7.730;2023-02-23T15:03:19;43.85;;;22.63;;
67092;SDS011;54011;50.772;7.730;2023-02-23T15:05:56;48.42;;;22.80;;
67092;SDS011;54011;50.772;7.730;2023-02-23T15:08:27;47.73;;;23.03;;
67092;SDS011;54011;50.772;7.730;2023-02-23T15:10:59;43.65;;;22.05;;
67092;SDS011;54011;50.772;7.730;2023-02-23T15:13:32;43.85;;;21.33;;
67092;SDS011;54011;50.772;7.730;2023-02-23T15:16:05;48.28;;;21.92;;
67092;SDS011;54011;50.772;7.730;2023-02-23T15:21:56;46.70;;;21.70;;
67092;SDS011;54011;50.772;7.730;2023-02-23T15:24:24;29.88;;;13.77;;
67092;SDS011;54011;50.772;7.730;2023-02-23T15:26:59;47.40;;;22.65;;
67092;SDS011;54011;50.772;7.730;2023-02-23T15:29:29;50.30;;;23.38;;
67092;SDS011;54011;50.772;7.730;2023-02-23T15:32:08;41.00;;;17.63;;
67092;SDS011;54011;50.772;7.730;2023-02-23T15:34:39;46.83;;;20.30;;
67092;SDS011;54011;50.772;7.730;2023-02-23T15:37:06;49.13;;;20.58;;
67092;SDS011;54011;50.772;7.730;2023-02-23T15:39:38;40.40;;;17.70;;
67092;SDS011;54011;50.772;7.730;2023-02-23T15:42:13;45.17;;;19.52;;
67092;SDS011;54011;50.772;7.730;2023-02-23T15:44:41;46.17;;;18.83;;
67092;SDS011;54011;50.772;7.730;2023-02-23T15:47:16;41.67;;;19.13;;
67092;SDS011;54011;50.772;7.730;2023-02-23T15:49:57;33.20;;;15.02;;
67092;SDS011;54011;50.772;7.730;2023-02-23T15:52:26;40.55;;;16.90;;
67092;SDS011;54011;50.772;7.730;2023-02-23T15:54:58;39.67;;;16.15;;
67092;SDS011;54011;50.772;7.730;2023-02-23T15:57:32;32.67;;;14.88;;
67092;SDS011;54011;50.772;7.730;2023-02-23T16:00:13;37.13;;;15.15;;
67092;SDS011;54011;50.772;7.730;2023-02-23T16:02:43;36.95;;;17.10;;
67092;SDS011;54011;50.772;7.730;2023-02-23T16:05:21;35.38;;;15.15;;
67092;SDS011;54011;50.772;7.730;2023-02-23T16:07:47;38.75;;;16.70;;
67092;SDS011;54011;50.772;7.730;2023-02-23T16:10:40;37.47;;;17.30;;
67092;SDS011;54011;50.772;7.730;2023-02-23T16:13:09;40.38;;;16.40;;
67092;SDS011;54011;50.772;7.730;2023-02-23T16:15:37;41.22;;;16.48;;
67092;SDS011;54011;50.772;7.730;2023-02-23T16:18:04;40.90;;;17.10;;
67092;SDS011;54011;50.772;7.730;2023-02-23T16:20:38;39.40;;;16.27;;
67092;SDS011;54011;50.772;7.730;2023-02-23T16:23:26;37.90;;;15.73;;
67092;SDS011;54011;50.772;7.730;2023-02-23T16:25:58;37.85;;;16.77;;
67092;SDS011;54011;50.772;7.730;2023-02-23T16:28:31;41.65;;;17.13;;
67092;SDS011;54011;50.772;7.730;2023-02-23T16:31:06;38.55;;;16.20;;
67092;SDS011;54011;50.772;7.730;2023-02-23T16:33:43;33.00;;;13.43;;
67092;SDS011;54011;50.772;7.730;2023-02-23T16:36:14;43.90;;;17.25;;
67092;SDS011;54011;50.772;7.730;2023-02-23T16:41:23;36.47;;;14.93;;
67092;SDS011;54011;50.772;7.730;2023-02-23T16:43:51;41.22;;;17.27;;
67092;SDS011;54011;50.772;7.730;2023-02-23T16:46:19;46.63;;;18.23;;
67092;SDS011;54011;50.772;7.730;2023-02-23T16:48:48;46.45;;;18.92;;
67092;SDS011;54011;50.772;7.730;2023-02-23T16:51:16;44.72;;;18.73;;
67092;SDS011;54011;50.772;7.730;2023-02-23T16:53:43;41.13;;;15.43;;